Terminal Aerodrome Forecast
Issued by NWS

Home | Current Version | Previous Version | Text Only | Print | Product List | Glossary Off
Versions: 1 2 3 4 5 6 7 8 9 10 11 12 13 14

528
FTUS43 KTOP 142336
TAFMHK
TAF
KMHK 142336Z 1500/1524 33013G23KT P6SM VCSH SCT020 BKN035
     FM150300 32017G23KT P6SM SCT020 BKN050
     FM150800 32008KT P6SM FEW250=

USA.gov is the U.S. government's official web portal to all federal, state and local government web resources and services.